createdAt,value
2023-09-23T00:00:07.523Z,0
2023-09-23T00:03:07.830Z,0
2023-09-23T00:06:07.586Z,0
2023-09-23T00:09:07.580Z,0
2023-09-23T00:12:07.379Z,0
2023-09-23T00:15:07.427Z,0
2023-09-23T00:18:07.714Z,0
2023-09-23T00:21:07.507Z,0
2023-09-23T00:24:07.412Z,0
2023-09-23T00:27:07.707Z,0
2023-09-23T00:30:07.390Z,0
2023-09-23T00:33:07.600Z,0
2023-09-23T00:36:07.582Z,0
2023-09-23T00:39:07.396Z,0
2023-09-23T00:42:07.437Z,0
2023-09-23T00:45:07.384Z,0
2023-09-23T00:48:07.718Z,0
2023-09-23T00:51:07.423Z,0
2023-09-23T00:54:07.389Z,0
2023-09-23T00:57:07.326Z,0
2023-09-23T01:00:07.569Z,0
2023-09-23T01:03:08.761Z,0
2023-09-23T01:06:07.544Z,0
2023-09-23T01:09:07.386Z,0
2023-09-23T01:12:07.416Z,0
2023-09-23T01:15:07.420Z,0
2023-09-23T01:18:07.590Z,0
2023-09-23T01:21:07.311Z,0
2023-09-23T01:24:07.395Z,0
2023-09-23T01:27:07.436Z,0
2023-09-23T01:30:07.376Z,0
2023-09-23T01:33:07.729Z,0
2023-09-23T01:36:07.442Z,0
2023-09-23T01:39:07.389Z,0
2023-09-23T01:42:08.073Z,0
2023-09-23T01:45:07.484Z,0
2023-09-23T01:48:07.816Z,0
2023-09-23T01:51:07.352Z,0
2023-09-23T01:54:07.449Z,0
2023-09-23T01:57:07.364Z,0
2023-09-23T02:00:07.505Z,0
2023-09-23T02:03:07.904Z,0
2023-09-23T02:06:07.427Z,0
2023-09-23T02:09:07.321Z,0
2023-09-23T02:12:07.731Z,0
2023-09-23T02:15:07.411Z,0
2023-09-23T02:18:07.582Z,0
2023-09-23T02:21:07.491Z,0
2023-09-23T02:24:07.320Z,0
2023-09-23T02:27:07.561Z,0
2023-09-23T02:30:07.415Z,0
2023-09-23T02:33:07.654Z,0
2023-09-23T02:36:07.374Z,0
2023-09-23T02:39:07.493Z,0
2023-09-23T02:42:07.456Z,0
2023-09-23T02:45:07.372Z,0
2023-09-23T02:48:23.071Z,0
2023-09-23T02:51:07.437Z,0
2023-09-23T02:54:07.407Z,0
2023-09-23T02:57:07.364Z,0
2023-09-23T03:00:07.457Z,0
2023-09-23T03:03:07.971Z,0
2023-09-23T03:06:07.950Z,0
2023-09-23T03:09:07.443Z,0
2023-09-23T03:12:07.462Z,0
2023-09-23T03:15:07.375Z,0
2023-09-23T03:18:07.618Z,0
2023-09-23T03:21:07.400Z,0
2023-09-23T03:24:07.437Z,0
2023-09-23T03:27:07.446Z,0
2023-09-23T03:30:11.151Z,0
2023-09-23T03:33:07.797Z,0
2023-09-23T03:36:07.333Z,0
2023-09-23T03:39:07.400Z,0
2023-09-23T03:42:07.421Z,0
2023-09-23T03:45:07.485Z,0
2023-09-23T03:48:07.599Z,0
2023-09-23T03:51:07.413Z,0
2023-09-23T03:54:07.379Z,0
2023-09-23T03:57:07.340Z,0
2023-09-23T04:00:07.619Z,0
2023-09-23T04:03:07.545Z,0
2023-09-23T04:06:07.379Z,0
2023-09-23T04:09:07.420Z,0
2023-09-23T04:12:07.690Z,0
2023-09-23T04:15:07.402Z,0
2023-09-23T04:18:07.552Z,0
2023-09-23T04:21:07.564Z,0
2023-09-23T04:24:07.343Z,0
2023-09-23T04:27:07.312Z,0
2023-09-23T04:30:07.354Z,0
2023-09-23T04:33:07.926Z,0
2023-09-23T04:36:07.387Z,0
2023-09-23T04:39:07.342Z,3
2023-09-23T04:42:07.765Z,3
2023-09-23T04:45:07.459Z,7
2023-09-23T04:48:07.510Z,13
2023-09-23T04:51:07.481Z,23
2023-09-23T04:54:07.493Z,40
2023-09-23T04:57:07.332Z,47
2023-09-23T05:00:07.444Z,60
2023-09-23T05:03:07.500Z,67
2023-09-23T05:06:07.404Z,70
2023-09-23T05:09:07.526Z,87
2023-09-23T05:12:07.516Z,70
2023-09-23T05:15:07.611Z,100
2023-09-23T05:18:08.009Z,130
2023-09-23T05:21:07.433Z,173
2023-09-23T05:24:07.598Z,200
2023-09-23T05:27:07.568Z,310
2023-09-23T05:30:08.026Z,397
2023-09-23T05:33:07.788Z,537
2023-09-23T05:36:07.473Z,653
2023-09-23T05:39:07.503Z,873
2023-09-23T05:42:07.526Z,1083
2023-09-23T05:45:07.494Z,1273
2023-09-23T05:48:07.960Z,1493
2023-09-23T05:51:07.450Z,1543
2023-09-23T05:54:07.455Z,1547
2023-09-23T05:57:07.626Z,1637
2023-09-23T06:00:07.510Z,1753
2023-09-23T06:03:07.930Z,1907
2023-09-23T06:06:07.550Z,2163
2023-09-23T06:09:07.441Z,2243
2023-09-23T06:12:08.229Z,2347
2023-09-23T06:15:07.661Z,2533
2023-09-23T06:18:07.986Z,2727
2023-09-23T06:21:07.672Z,3163
2023-09-23T06:24:07.638Z,3653
2023-09-23T06:27:07.473Z,3603
2023-09-23T06:30:07.657Z,3837
2023-09-23T06:33:07.668Z,4383
2023-09-23T06:36:07.608Z,4287
2023-09-23T06:39:07.463Z,4440
2023-09-23T06:42:07.469Z,3723
2023-09-23T06:45:07.411Z,3777
2023-09-23T06:48:07.743Z,4730
2023-09-23T06:51:07.562Z,5300
2023-09-23T06:54:07.496Z,5377
2023-09-23T06:57:07.530Z,5517
2023-09-23T07:00:07.540Z,5540
2023-09-23T07:03:08.391Z,5717
2023-09-23T07:06:07.578Z,5990
2023-09-23T07:09:07.511Z,6367
2023-09-23T07:12:07.532Z,6753
2023-09-23T07:15:07.463Z,7100
2023-09-23T07:18:07.946Z,7590
2023-09-23T07:21:07.486Z,8083
2023-09-23T07:24:14.072Z,8590
2023-09-23T07:27:07.455Z,9263
2023-09-23T07:30:07.543Z,9853
2023-09-23T07:33:07.731Z,10493
2023-09-23T07:36:07.541Z,11183
2023-09-23T07:39:07.650Z,11667
2023-09-23T07:42:07.418Z,12803
2023-09-23T07:45:07.552Z,13687
2023-09-23T07:48:07.706Z,14383
2023-09-23T07:51:07.621Z,15320
2023-09-23T07:54:07.496Z,15933
2023-09-23T07:57:07.558Z,17290
2023-09-23T08:00:07.651Z,17853
2023-09-23T08:03:07.950Z,19193
2023-09-23T08:06:07.520Z,20843
2023-09-23T08:09:07.494Z,22503
2023-09-23T08:12:07.539Z,15483
2023-09-23T08:15:07.559Z,23697
2023-09-23T08:18:07.736Z,24890
2023-09-23T08:21:07.579Z,24040
2023-09-23T08:24:07.531Z,24953
2023-09-23T08:27:08.119Z,25247
2023-09-23T08:30:07.459Z,26490
2023-09-23T08:33:08.106Z,27213
2023-09-23T08:36:07.422Z,29523
2023-09-23T08:39:07.487Z,29687
2023-09-23T08:42:07.759Z,9973
2023-09-23T08:45:07.554Z,35473
2023-09-23T08:48:07.624Z,27267
2023-09-23T08:51:07.546Z,12667
2023-09-23T08:54:10.770Z,10783
2023-09-23T08:57:07.583Z,8310
2023-09-23T09:00:07.778Z,15037
2023-09-23T09:03:07.832Z,14913
2023-09-23T09:06:08.069Z,15880
2023-09-23T09:09:07.677Z,12840
2023-09-23T09:12:07.643Z,16917
2023-09-23T09:15:07.499Z,13497
2023-09-23T09:18:07.812Z,38467
2023-09-23T09:21:07.496Z,9487
2023-09-23T09:24:07.574Z,36433
2023-09-23T09:27:07.613Z,17490
2023-09-23T09:30:21.526Z,16183
2023-09-23T09:33:07.638Z,11817
2023-09-23T09:36:07.670Z,12713
2023-09-23T09:39:07.803Z,12253
2023-09-23T09:42:07.807Z,15143
2023-09-23T09:45:07.526Z,40943
2023-09-23T09:48:07.920Z,38830
2023-09-23T09:51:07.454Z,39653
2023-09-23T09:54:07.499Z,37717
2023-09-23T09:57:07.364Z,38627
2023-09-23T10:00:07.611Z,38787
2023-09-23T10:03:08.189Z,38500
2023-09-23T10:06:07.431Z,41857
2023-09-23T10:09:07.434Z,41023
2023-09-23T10:12:07.800Z,43733
2023-09-23T10:15:07.593Z,45013
2023-09-23T10:18:08.159Z,46030
2023-09-23T10:21:07.446Z,10700
2023-09-23T10:24:07.760Z,12537
2023-09-23T10:27:07.451Z,9047
2023-09-23T10:30:07.787Z,33330
2023-09-23T10:33:07.627Z,13217
2023-09-23T10:36:07.651Z,10353
2023-09-23T10:39:07.442Z,11950
2023-09-23T10:42:07.474Z,27837
2023-09-23T10:45:07.557Z,11097
2023-09-23T10:48:07.676Z,45987
2023-09-23T10:51:07.524Z,44137
2023-09-23T10:54:07.644Z,43327
2023-09-23T10:57:07.432Z,44537
2023-09-23T11:00:07.675Z,18517
2023-09-23T11:03:08.000Z,26080
2023-09-23T11:06:07.852Z,50213
2023-09-23T11:09:07.390Z,53630
2023-09-23T11:12:07.572Z,26660
2023-09-23T11:15:07.420Z,11517
2023-09-23T11:18:07.730Z,6860
2023-09-23T11:21:07.452Z,9627
2023-09-23T11:24:07.455Z,12160
2023-09-23T11:27:07.550Z,14313
2023-09-23T11:30:07.497Z,16617
2023-09-23T11:33:08.036Z,44807
2023-09-23T11:36:07.486Z,10680
2023-09-23T11:39:07.497Z,48410
2023-09-23T11:42:07.503Z,12187
2023-09-23T11:45:07.458Z,45430
2023-09-23T11:48:08.126Z,17643
2023-09-23T11:51:07.592Z,28397
2023-09-23T11:54:07.491Z,18403
2023-09-23T11:57:07.482Z,22463
2023-09-23T12:00:07.972Z,43327
2023-09-23T12:03:07.786Z,50347
2023-09-23T12:06:07.977Z,47233
2023-09-23T12:09:07.536Z,48013
2023-09-23T12:12:07.874Z,26983
2023-09-23T12:15:07.517Z,24130
2023-09-23T12:18:07.852Z,13760
2023-09-23T12:21:07.425Z,8127
2023-09-23T12:24:07.514Z,9480
2023-09-23T12:27:07.535Z,11283
2023-09-23T12:30:07.686Z,10270
2023-09-23T12:33:07.948Z,10010
2023-09-23T12:36:07.565Z,12197
2023-09-23T12:39:08.745Z,38377
2023-09-23T12:42:07.580Z,41457
2023-09-23T12:45:12.711Z,39210
2023-09-23T12:48:08.056Z,9547
2023-09-23T12:51:07.563Z,6753
2023-09-23T12:54:07.537Z,3980
2023-09-23T12:57:07.568Z,2773
2023-09-23T13:00:07.730Z,3730
2023-09-23T13:03:08.263Z,5683
2023-09-23T13:06:07.669Z,7503
2023-09-23T13:09:07.529Z,12710
2023-09-23T13:12:07.504Z,25990
2023-09-23T13:15:07.702Z,12510
2023-09-23T13:18:07.744Z,8040
2023-09-23T13:21:07.516Z,5413
2023-09-23T13:24:07.513Z,4543
2023-09-23T13:27:07.521Z,6530
2023-09-23T13:30:07.560Z,8253
2023-09-23T13:33:07.818Z,8500
2023-09-23T13:36:07.536Z,7443
2023-09-23T13:39:07.560Z,8370
2023-09-23T13:42:07.503Z,11643
2023-09-23T13:45:07.491Z,13867
2023-09-23T13:48:07.916Z,17087
2023-09-23T13:51:10.351Z,15867
2023-09-23T13:54:07.569Z,14593
2023-09-23T13:57:07.540Z,15297
2023-09-23T14:00:07.656Z,11230
2023-09-23T14:03:07.758Z,7607
2023-09-23T14:06:07.605Z,7177
2023-09-23T14:09:07.553Z,5770
2023-09-23T14:12:07.575Z,5080
2023-09-23T14:15:07.541Z,4913
2023-09-23T14:18:11.395Z,4863
2023-09-23T14:21:07.478Z,4460
2023-09-23T14:24:07.419Z,5087
2023-09-23T14:27:07.449Z,5473
2023-09-23T14:30:07.730Z,6187
2023-09-23T14:33:07.696Z,8007
2023-09-23T14:36:07.497Z,10740
2023-09-23T14:39:07.490Z,17680
2023-09-23T14:42:07.759Z,10717
2023-09-23T14:45:08.068Z,8870
2023-09-23T14:48:08.105Z,8637
2023-09-23T14:51:07.560Z,8737
2023-09-23T14:54:07.580Z,9167
2023-09-23T14:57:07.487Z,9063
2023-09-23T15:00:07.647Z,8427
2023-09-23T15:03:08.426Z,7653
2023-09-23T15:06:07.478Z,7167
2023-09-23T15:09:09.227Z,6907
2023-09-23T15:12:07.451Z,6287
2023-09-23T15:15:07.518Z,5147
2023-09-23T15:18:08.167Z,4347
2023-09-23T15:21:07.410Z,6880
2023-09-23T15:24:07.542Z,6333
2023-09-23T15:27:07.629Z,5717
2023-09-23T15:30:07.640Z,5793
2023-09-23T15:33:07.917Z,5237
2023-09-23T15:36:07.536Z,4377
2023-09-23T15:39:07.521Z,3873
2023-09-23T15:42:07.454Z,3430
2023-09-23T15:45:07.592Z,3473
2023-09-23T15:48:07.997Z,3443
2023-09-23T15:51:07.467Z,2867
2023-09-23T15:54:07.490Z,2217
2023-09-23T15:57:09.309Z,1883
2023-09-23T16:00:07.721Z,1840
2023-09-23T16:03:09.203Z,1843
2023-09-23T16:06:07.582Z,1703
2023-09-23T16:09:07.557Z,1420
2023-09-23T16:12:07.498Z,1403
2023-09-23T16:15:07.643Z,1460
2023-09-23T16:18:08.128Z,1397
2023-09-23T16:21:07.442Z,1317
2023-09-23T16:24:07.614Z,1207
2023-09-23T16:27:07.454Z,1063
2023-09-23T16:30:07.759Z,1013
2023-09-23T16:33:07.924Z,973
2023-09-23T16:36:07.531Z,857
2023-09-23T16:39:07.509Z,733
2023-09-23T16:42:07.555Z,633
2023-09-23T16:45:07.637Z,583
2023-09-23T16:48:08.170Z,510
2023-09-23T16:51:07.429Z,427
2023-09-23T16:54:07.821Z,373
2023-09-23T16:57:07.576Z,303
2023-09-23T17:00:07.775Z,270
2023-09-23T17:03:08.367Z,250
2023-09-23T17:06:07.566Z,203
2023-09-23T17:09:07.521Z,153
2023-09-23T17:12:07.467Z,117
2023-09-23T17:15:07.702Z,90
2023-09-23T17:18:08.210Z,67
2023-09-23T17:21:07.545Z,50
2023-09-23T17:24:07.430Z,33
2023-09-23T17:27:07.478Z,23
2023-09-23T17:30:07.833Z,13
2023-09-23T17:33:08.290Z,7
2023-09-23T17:36:07.374Z,3
2023-09-23T17:39:07.444Z,3
2023-09-23T17:42:07.642Z,3
2023-09-23T17:45:07.509Z,0
2023-09-23T17:48:08.154Z,0
2023-09-23T17:51:07.479Z,0
2023-09-23T17:54:07.470Z,0
2023-09-23T17:57:07.375Z,0
2023-09-23T18:00:07.429Z,0
2023-09-23T18:03:08.240Z,0
2023-09-23T18:06:07.421Z,0
2023-09-23T18:09:07.462Z,0
2023-09-23T18:12:07.503Z,0
2023-09-23T18:15:09.558Z,0
2023-09-23T18:18:07.972Z,0
2023-09-23T18:21:07.459Z,0
2023-09-23T18:24:07.881Z,0
2023-09-23T18:27:07.411Z,0
2023-09-23T18:30:07.476Z,0
2023-09-23T18:33:07.844Z,0
2023-09-23T18:36:07.683Z,0
2023-09-23T18:39:07.473Z,0
2023-09-23T18:42:07.444Z,0
2023-09-23T18:45:07.441Z,0
2023-09-23T18:48:36.344Z,0
2023-09-23T18:51:07.444Z,0
2023-09-23T18:54:07.652Z,0
2023-09-23T18:57:07.368Z,0
2023-09-23T19:00:07.553Z,0
2023-09-23T19:03:07.949Z,0
2023-09-23T19:06:07.498Z,0
2023-09-23T19:09:07.427Z,0
2023-09-23T19:12:07.454Z,0
2023-09-23T19:15:07.547Z,0
2023-09-23T19:18:08.103Z,0
2023-09-23T19:21:07.410Z,0
2023-09-23T19:24:07.368Z,0
2023-09-23T19:27:07.708Z,0
2023-09-23T19:30:07.452Z,0
2023-09-23T19:33:07.967Z,0
2023-09-23T19:36:07.438Z,0
2023-09-23T19:39:07.485Z,0
2023-09-23T19:42:07.493Z,0
2023-09-23T19:45:08.554Z,0
2023-09-23T19:48:08.102Z,0
2023-09-23T19:51:07.420Z,0
2023-09-23T19:54:07.401Z,0
2023-09-23T19:57:07.466Z,0
2023-09-23T20:00:07.590Z,0
2023-09-23T20:03:07.790Z,0
2023-09-23T20:06:07.446Z,0
2023-09-23T20:09:07.522Z,0
2023-09-23T20:12:07.738Z,0
2023-09-23T20:15:07.712Z,0
2023-09-23T20:18:08.213Z,0
2023-09-23T20:21:07.416Z,0
2023-09-23T20:24:07.731Z,0
2023-09-23T20:27:07.528Z,0
2023-09-23T20:30:14.922Z,0
2023-09-23T20:33:07.812Z,0
2023-09-23T20:36:07.396Z,0
2023-09-23T20:39:07.411Z,0
2023-09-23T20:42:07.462Z,0
2023-09-23T20:45:07.997Z,0
2023-09-23T20:48:07.895Z,0
2023-09-23T20:51:07.575Z,0
2023-09-23T20:54:07.672Z,0
2023-09-23T20:57:07.463Z,0
2023-09-23T21:00:07.530Z,0
2023-09-23T21:03:10.811Z,0
2023-09-23T21:06:07.419Z,0
2023-09-23T21:09:07.443Z,0
2023-09-23T21:12:07.428Z,0
2023-09-23T21:15:07.458Z,0
2023-09-23T21:18:07.900Z,0
2023-09-23T21:21:07.405Z,0
2023-09-23T21:24:07.524Z,0
2023-09-23T21:27:07.356Z,0
2023-09-23T21:30:07.604Z,0
2023-09-23T21:33:07.975Z,0
2023-09-23T21:36:07.497Z,0
2023-09-23T21:39:07.374Z,0
2023-09-23T21:42:07.368Z,0
2023-09-23T21:45:07.506Z,0
2023-09-23T21:48:07.894Z,0
2023-09-23T21:51:07.434Z,0
2023-09-23T21:54:07.590Z,0
2023-09-23T21:57:07.631Z,0
2023-09-23T22:00:08.665Z,0
2023-09-23T22:03:08.348Z,0
2023-09-23T22:06:07.515Z,0
2023-09-23T22:09:07.457Z,0
2023-09-23T22:12:07.414Z,0
2023-09-23T22:15:07.335Z,0
2023-09-23T22:18:07.927Z,0
2023-09-23T22:21:07.369Z,0
2023-09-23T22:24:07.510Z,0
2023-09-23T22:27:07.665Z,0
2023-09-23T22:30:07.464Z,0
2023-09-23T22:33:07.930Z,0
2023-09-23T22:36:07.528Z,0
2023-09-23T22:39:07.391Z,0
2023-09-23T22:42:07.437Z,0
2023-09-23T22:45:07.428Z,0
2023-09-23T22:48:07.922Z,0
2023-09-23T22:51:07.474Z,0
2023-09-23T22:54:07.749Z,0
2023-09-23T22:57:07.398Z,0
2023-09-23T23:00:07.535Z,0
2023-09-23T23:03:08.336Z,0
2023-09-23T23:06:08.359Z,0
2023-09-23T23:09:07.509Z,0
2023-09-23T23:12:07.474Z,0
2023-09-23T23:15:07.474Z,0
2023-09-23T23:18:07.952Z,0
2023-09-23T23:21:07.671Z,0
2023-09-23T23:24:07.597Z,0
2023-09-23T23:27:07.408Z,0
2023-09-23T23:30:07.504Z,0
2023-09-23T23:33:08.025Z,0
2023-09-23T23:36:07.662Z,0
2023-09-23T23:39:07.392Z,0
2023-09-23T23:42:07.441Z,0
2023-09-23T23:45:07.455Z,0
2023-09-23T23:48:08.189Z,0
2023-09-23T23:51:07.532Z,0
2023-09-23T23:54:07.595Z,0
2023-09-23T23:57:07.653Z,0
